Terminal Aerodrome Forecast
Issued by NWS

Home | Current Version | Previous Version | Text Only | Print | Product List | Glossary On
Versions: 1 2 3 4 5 6 7 8 9 10 11 12
000
FTUS46 KHNX 291700
TAFVIS
TAF
KVIS 291730Z 2918/3018 21004KT P6SM SKC
     FM292200 30009KT P6SM SCT060 BKN120
     FM300300 31004KT P6SM SCT120
     FM301000 VRB03KT P6SM SKC=

USA.gov is the U.S. government's official web portal to all federal, state and local government web resources and services.